createdAt,value
2023-11-30T00:01:19.116Z,96417.25
2023-11-30T00:03:47.642Z,96422.50
2023-11-30T00:06:16.343Z,96425.81
2023-11-30T00:08:44.697Z,96419.88
2023-11-30T00:11:13.947Z,96421.53
2023-11-30T00:13:43.667Z,96421.53
2023-11-30T00:16:12.904Z,96422.38
2023-11-30T00:18:41.446Z,96417.97
2023-11-30T00:21:09.971Z,96424.84
2023-11-30T00:23:38.492Z,96428.31
2023-11-30T00:26:08.046Z,96422.25
2023-11-30T00:28:36.569Z,96427.47
2023-11-30T00:31:07.238Z,96421.41
2023-11-30T00:33:35.807Z,96424.84
2023-11-30T00:36:04.450Z,96413.53
2023-11-30T00:38:32.742Z,96418.66
2023-11-30T00:41:03.908Z,96424.84
2023-11-30T00:43:32.255Z,96428.31
2023-11-30T00:46:07.153Z,96430.94
2023-11-30T00:48:39.570Z,96437.09
2023-11-30T00:51:11.262Z,96444.28
2023-11-30T00:53:40.015Z,96443.44
2023-11-30T00:56:11.929Z,96444.41
2023-11-30T00:58:40.336Z,96443.44
2023-11-30T01:01:08.938Z,96441.78
2023-11-30T01:03:38.832Z,96452.25
2023-11-30T01:06:08.208Z,96449.66
2023-11-30T01:08:36.707Z,96448.81
2023-11-30T01:11:05.421Z,96446.44
2023-11-30T01:13:33.924Z,96446.53
2023-11-30T01:16:02.391Z,96450.13
2023-11-30T01:18:33.852Z,96448.72
2023-11-30T01:21:04.156Z,96447.19
2023-11-30T01:23:32.645Z,96444.69
2023-11-30T01:26:03.280Z,96454.47
2023-11-30T01:28:31.672Z,96443.44
2023-11-30T01:30:59.990Z,96447.97
2023-11-30T01:33:30.611Z,96435.00
2023-11-30T01:35:59.096Z,96435.97
2023-11-30T01:38:28.864Z,96426.44
2023-11-30T01:40:57.974Z,96440.38
2023-11-30T01:43:28.522Z,96431.56
2023-11-30T01:46:03.134Z,96439.41
2023-11-30T01:48:33.548Z,96433.38
2023-11-30T01:51:05.845Z,96428.25
2023-11-30T01:53:37.575Z,96425.91
2023-11-30T01:56:08.057Z,96423.41
2023-11-30T01:58:36.666Z,96418.44
2023-11-30T02:01:06.090Z,96424.03
2023-11-30T02:03:35.321Z,96418.09
2023-11-30T02:06:06.826Z,96416.72
2023-11-30T02:08:36.868Z,96409.13
2023-11-30T02:11:05.260Z,96414.47
2023-11-30T02:13:33.609Z,96402.38
2023-11-30T02:16:02.015Z,96403.31
2023-11-30T02:18:33.228Z,96399.88
2023-11-30T02:21:01.550Z,96400.94
2023-11-30T02:23:31.409Z,96396.56
2023-11-30T02:26:02.712Z,96390.63
2023-11-30T02:28:31.028Z,96395.97
2023-11-30T02:30:59.470Z,96392.56
2023-11-30T02:33:28.246Z,96375.06
2023-11-30T02:35:56.764Z,96375.75
2023-11-30T02:38:25.076Z,96361.59
2023-11-30T02:40:54.862Z,96358.97
2023-11-30T02:43:23.481Z,96351.97
2023-11-30T02:45:51.902Z,96354.44
2023-11-30T02:48:20.359Z,96340.53
2023-11-30T02:50:48.836Z,96336.28
2023-11-30T02:53:17.190Z,96338.88
2023-11-30T02:55:45.599Z,96349.34
2023-11-30T02:58:15.352Z,96348.38
2023-11-30T03:00:47.506Z,96346.59
2023-11-30T03:03:15.948Z,96348.38
2023-11-30T03:05:44.336Z,96350.19
2023-11-30T03:08:12.724Z,96344.13
2023-11-30T03:10:41.147Z,96345.91
2023-11-30T03:13:09.604Z,96349.47
2023-11-30T03:15:46.059Z,96356.63
2023-11-30T03:18:14.645Z,96359.34
2023-11-30T03:20:43.156Z,96348.22
2023-11-30T03:23:11.626Z,96349.16
2023-11-30T03:25:42.123Z,96357.97
2023-11-30T03:28:10.555Z,96343.25
2023-11-30T03:30:40.422Z,96349.41
2023-11-30T03:33:08.833Z,96346.94
2023-11-30T03:35:37.187Z,96353.25
2023-11-30T03:38:05.566Z,96353.38
2023-11-30T03:40:33.951Z,96343.06
2023-11-30T03:43:02.241Z,96337.94
2023-11-30T03:45:36.094Z,96332.84
2023-11-30T03:48:06.955Z,96334.78
2023-11-30T03:50:35.762Z,96335.84
2023-11-30T03:53:04.162Z,96336.81
2023-11-30T03:55:33.564Z,96327.59
2023-11-30T03:58:02.759Z,96332.09
2023-11-30T04:00:33.359Z,96326.16
2023-11-30T04:03:01.793Z,96316.66
2023-11-30T04:05:31.575Z,96331.63
2023-11-30T04:08:01.691Z,96329.88
2023-11-30T04:10:30.181Z,96330.00
2023-11-30T04:12:58.614Z,96335.22
2023-11-30T04:15:27.352Z,96339.59
2023-11-30T04:17:56.969Z,96348.41
2023-11-30T04:20:25.423Z,96341.53
2023-11-30T04:22:55.264Z,96344.16
2023-11-30T04:25:23.889Z,96348.66
2023-11-30T04:27:52.216Z,96356.50
2023-11-30T04:30:20.676Z,96350.56
2023-11-30T04:32:49.238Z,96347.97
2023-11-30T04:35:17.705Z,96337.63
2023-11-30T04:37:48.800Z,96336.81
2023-11-30T04:40:19.629Z,96338.59
2023-11-30T04:42:48.029Z,96342.19
2023-11-30T04:45:16.613Z,96342.19
2023-11-30T04:47:45.006Z,96348.34
2023-11-30T04:50:13.403Z,96349.31
2023-11-30T04:52:41.735Z,96340.63
2023-11-30T04:55:11.021Z,96339.81
2023-11-30T04:57:40.729Z,96329.63
2023-11-30T05:00:10.902Z,96324.38
2023-11-30T05:02:41.841Z,96322.59
2023-11-30T05:05:10.684Z,96320.09
2023-11-30T05:07:42.078Z,96324.50
2023-11-30T05:10:10.848Z,96327.25
2023-11-30T05:12:42.703Z,96325.44
2023-11-30T05:15:11.792Z,96327.25
2023-11-30T05:17:43.225Z,96334.25
2023-11-30T05:20:12.720Z,96324.63
2023-11-30T05:22:41.063Z,96316.81
2023-11-30T05:25:11.035Z,96315.84
2023-11-30T05:27:40.868Z,96319.28
2023-11-30T05:30:10.698Z,96325.19
2023-11-30T05:32:39.172Z,96314.63
2023-11-30T05:35:14.914Z,96304.03
2023-11-30T05:37:43.659Z,96307.50
2023-11-30T05:40:13.878Z,96301.41
2023-11-30T05:42:44.140Z,96304.75
2023-11-30T05:45:12.670Z,96302.13
2023-11-30T05:47:41.533Z,96294.16
2023-11-30T05:50:13.666Z,96293.31
2023-11-30T05:52:42.014Z,96287.97
2023-11-30T05:55:11.881Z,96278.34
2023-11-30T05:57:40.393Z,96286.06
2023-11-30T06:00:13.727Z,96286.91
2023-11-30T06:02:42.265Z,96285.94
2023-11-30T06:05:11.513Z,96273.72
2023-11-30T06:07:48.770Z,96270.13
2023-11-30T06:10:17.566Z,96265.88
2023-11-30T06:12:46.121Z,96267.53
2023-11-30T06:15:16.152Z,96261.44
2023-11-30T06:17:44.742Z,96261.44
2023-11-30T06:20:13.645Z,96261.19
2023-11-30T06:22:42.436Z,96264.78
2023-11-30T06:25:11.159Z,96266.28
2023-11-30T06:27:39.527Z,96253.22
2023-11-30T06:30:09.704Z,96262.75
2023-11-30T06:32:39.617Z,96267.00
2023-11-30T06:35:09.097Z,96263.56
2023-11-30T06:37:37.526Z,96259.16
2023-11-30T06:40:07.795Z,96270.59
2023-11-30T06:42:36.391Z,96268.91
2023-11-30T06:45:05.331Z,96265.47
2023-11-30T06:47:33.816Z,96274.13
2023-11-30T06:50:04.633Z,96271.38
2023-11-30T06:52:33.036Z,96279.94
2023-11-30T06:55:03.033Z,96278.03
2023-11-30T06:57:31.853Z,96279.69
2023-11-30T07:00:00.395Z,96276.09
2023-11-30T07:02:29.052Z,96280.41
2023-11-30T07:04:57.669Z,96280.28
2023-11-30T07:07:33.991Z,96287.16
2023-11-30T07:10:05.695Z,96281.91
2023-11-30T07:12:34.130Z,96275.72
2023-11-30T07:15:02.786Z,96267.06
2023-11-30T07:17:34.100Z,96264.44
2023-11-30T07:20:02.495Z,96260.03
2023-11-30T07:22:32.259Z,96269.69
2023-11-30T07:25:00.629Z,96282.50
2023-11-30T07:27:29.651Z,96278.91
2023-11-30T07:29:58.005Z,96271.91
2023-11-30T07:32:26.265Z,96271.06
2023-11-30T07:34:54.756Z,96269.13
2023-11-30T07:37:24.240Z,96268.31
2023-11-30T07:39:53.919Z,96246.56
2023-11-30T07:42:29.560Z,96248.22
2023-11-30T07:45:04.742Z,96254.41
2023-11-30T07:47:33.838Z,96256.22
2023-11-30T07:50:02.516Z,96249.19
2023-11-30T07:52:32.261Z,96240.53
2023-11-30T07:55:04.177Z,96231.00
2023-11-30T07:57:34.082Z,96240.66
2023-11-30T08:00:06.270Z,96237.34
2023-11-30T08:02:35.498Z,96224.28
2023-11-30T08:05:06.098Z,96227.72
2023-11-30T08:07:34.564Z,96226.88
2023-11-30T08:10:06.192Z,96233.75
2023-11-30T08:12:34.777Z,96238.06
2023-11-30T08:15:04.275Z,96229.25
2023-11-30T08:17:32.669Z,96232.53
2023-11-30T08:20:01.152Z,96237.63
2023-11-30T08:22:29.605Z,96239.97
2023-11-30T08:24:58.000Z,96232.00
2023-11-30T08:27:28.210Z,96224.72
2023-11-30T08:29:56.551Z,96231.34
2023-11-30T08:32:28.386Z,96233.03
2023-11-30T08:34:56.944Z,96236.88
2023-11-30T08:37:25.655Z,96231.25
2023-11-30T08:39:54.235Z,96230.03
2023-11-30T08:42:24.320Z,96230.59
2023-11-30T08:44:54.240Z,96231.03
2023-11-30T08:47:22.591Z,96240.28
2023-11-30T08:49:50.943Z,96234.78
2023-11-30T08:52:19.392Z,96228.56
2023-11-30T08:54:47.918Z,96209.84
2023-11-30T08:57:16.346Z,96209.72
2023-11-30T08:59:45.180Z,96208.75
2023-11-30T09:02:15.982Z,96210.28
2023-11-30T09:04:44.572Z,96208.19
2023-11-30T09:07:13.043Z,96203.66
2023-11-30T09:09:45.914Z,96203.41
2023-11-30T09:12:16.189Z,96210.16
2023-11-30T09:14:44.662Z,96215.97
2023-11-30T09:17:14.844Z,96203.72
2023-11-30T09:19:43.177Z,96200.69
2023-11-30T09:22:14.401Z,96206.59
2023-11-30T09:24:42.834Z,96207.31
2023-11-30T09:27:11.275Z,96210.63
2023-11-30T09:29:39.553Z,96208.53
2023-11-30T09:32:08.470Z,96208.41
2023-11-30T09:34:38.170Z,96202.91
2023-11-30T09:37:06.744Z,96193.00
2023-11-30T09:39:35.125Z,96200.84
2023-11-30T09:42:07.315Z,96204.97
2023-11-30T09:44:35.762Z,96201.25
2023-11-30T09:47:04.367Z,96198.63
2023-11-30T09:49:32.800Z,96181.00
2023-11-30T09:52:03.114Z,96180.28
2023-11-30T09:54:31.547Z,96183.59
2023-11-30T09:57:00.134Z,96180.84
2023-11-30T09:59:28.587Z,96172.03
2023-11-30T10:02:00.882Z,96169.25
2023-11-30T10:04:31.190Z,96167.47
2023-11-30T10:07:01.148Z,96160.31
2023-11-30T10:09:31.703Z,96152.34
2023-11-30T10:12:00.253Z,96152.19
2023-11-30T10:14:28.759Z,96147.75
2023-11-30T10:16:57.208Z,96138.81
2023-11-30T10:19:25.673Z,96143.06
2023-11-30T10:21:57.792Z,96144.56
2023-11-30T10:24:28.235Z,96130.41
2023-11-30T10:27:00.295Z,96118.09
2023-11-30T10:29:32.082Z,96119.78
2023-11-30T10:32:05.209Z,96118.66
2023-11-30T10:34:42.932Z,96127.22
2023-11-30T10:37:14.981Z,96101.03
2023-11-30T10:39:45.494Z,96103.63
2023-11-30T10:42:15.467Z,96101.69
2023-11-30T10:44:51.479Z,96100.75
2023-11-30T10:47:21.044Z,96096.44
2023-11-30T10:49:51.057Z,96091.06
2023-11-30T10:52:22.082Z,96095.34
2023-11-30T10:55:01.441Z,96087.34
2023-11-30T10:57:29.935Z,96092.31
2023-11-30T10:59:59.779Z,96075.47
2023-11-30T11:02:37.448Z,96069.25
2023-11-30T11:05:10.523Z,96054.50
2023-11-30T11:07:38.857Z,96062.22
2023-11-30T11:10:10.048Z,96052.44
2023-11-30T11:12:41.294Z,96047.84
2023-11-30T11:15:15.768Z,96045.94
2023-11-30T11:17:49.455Z,96030.22
2023-11-30T11:20:25.959Z,96031.84
2023-11-30T11:22:56.758Z,96041.19
2023-11-30T11:25:27.481Z,96034.88
2023-11-30T11:27:57.037Z,96032.09
2023-11-30T11:30:28.376Z,96038.56
2023-11-30T11:33:00.358Z,96041.03
2023-11-30T11:35:29.291Z,96038.25
2023-11-30T11:37:59.727Z,96038.94
2023-11-30T11:40:29.705Z,96034.66
2023-11-30T11:43:01.376Z,96033.84
2023-11-30T11:45:29.848Z,96026.81
2023-11-30T11:47:58.284Z,96025.16
2023-11-30T11:50:26.738Z,96018.13
2023-11-30T11:53:01.617Z,96014.53
2023-11-30T11:55:31.949Z,96009.13
2023-11-30T11:58:00.381Z,95993.56
2023-11-30T12:00:28.995Z,95997.31
2023-11-30T12:03:07.200Z,95998.25
2023-11-30T12:05:35.590Z,95999.94
2023-11-30T12:08:05.579Z,96005.16
2023-11-30T12:10:40.881Z,96000.59
2023-11-30T12:13:11.196Z,95993.56
2023-11-30T12:15:39.687Z,95999.34
2023-11-30T12:18:08.944Z,96001.97
2023-11-30T12:20:37.689Z,95989.53
2023-11-30T12:23:06.029Z,95995.44
2023-11-30T12:25:36.881Z,95990.06
2023-11-30T12:28:05.728Z,95987.44
2023-11-30T12:30:34.228Z,95988.13
2023-11-30T12:33:02.793Z,95991.56
2023-11-30T12:35:31.287Z,95990.44
2023-11-30T12:37:59.684Z,95996.34
2023-11-30T12:40:28.252Z,95989.19
2023-11-30T12:42:58.154Z,95991.66
2023-11-30T12:45:26.604Z,95996.59
2023-11-30T12:47:55.058Z,96001.84
2023-11-30T12:50:24.312Z,95993.69
2023-11-30T12:52:52.954Z,95983.84
2023-11-30T12:55:21.448Z,95982.91
2023-11-30T12:57:51.298Z,95980.13
2023-11-30T13:00:22.479Z,95987.69
2023-11-30T13:02:51.042Z,95984.94
2023-11-30T13:05:20.115Z,95993.44
2023-11-30T13:07:49.917Z,96000.50
2023-11-30T13:10:20.042Z,95984.63
2023-11-30T13:12:48.921Z,95981.84
2023-11-30T13:15:17.519Z,95990.53
2023-11-30T13:17:48.121Z,96000.88
2023-11-30T13:20:16.608Z,95987.63
2023-11-30T13:22:46.341Z,95977.97
2023-11-30T13:25:15.963Z,95974.50
2023-11-30T13:27:47.558Z,95984.03
2023-11-30T13:30:18.698Z,95982.22
2023-11-30T13:32:49.092Z,95982.38
2023-11-30T13:35:17.551Z,95985.81
2023-11-30T13:37:46.216Z,95977.97
2023-11-30T13:40:16.067Z,95985.66
2023-11-30T13:42:44.524Z,95983.06
2023-11-30T13:45:13.139Z,95984.84
2023-11-30T13:47:48.352Z,95990.91
2023-11-30T13:50:26.377Z,96001.41
2023-11-30T13:53:00.843Z,96001.56
2023-11-30T13:55:30.249Z,95980.88
2023-11-30T13:57:58.760Z,95983.50
2023-11-30T14:00:27.378Z,95977.41
2023-11-30T14:02:56.031Z,95981.03
2023-11-30T14:05:25.758Z,95984.63
2023-11-30T14:07:54.330Z,95978.56
2023-11-30T14:10:22.717Z,95982.97
2023-11-30T14:12:51.495Z,95990.03
2023-11-30T14:15:21.357Z,95996.22
2023-11-30T14:17:50.815Z,95990.97
2023-11-30T14:20:21.136Z,95979.00
2023-11-30T14:22:51.280Z,95979.97
2023-11-30T14:25:19.693Z,95984.53
2023-11-30T14:27:48.656Z,95990.75
2023-11-30T14:30:17.274Z,95976.81
2023-11-30T14:32:45.825Z,95975.97
2023-11-30T14:35:14.446Z,95980.56
2023-11-30T14:37:43.381Z,95974.50
2023-11-30T14:40:14.853Z,95970.22
2023-11-30T14:42:43.687Z,95972.03
2023-11-30T14:45:13.842Z,95981.56
2023-11-30T14:47:44.673Z,95988.03
2023-11-30T14:50:13.598Z,95997.72
2023-11-30T14:52:46.415Z,95997.72
2023-11-30T14:55:16.531Z,95991.66
2023-11-30T14:57:45.141Z,95979.53
2023-11-30T15:00:18.432Z,95964.09
2023-11-30T15:02:47.065Z,95966.88
2023-11-30T15:05:16.655Z,95976.50
2023-11-30T15:07:45.492Z,95985.34
2023-11-30T15:10:15.476Z,95993.06
2023-11-30T15:12:44.829Z,95995.69
2023-11-30T15:15:15.818Z,95988.63
2023-11-30T15:17:46.214Z,95984.22
2023-11-30T15:20:16.200Z,95982.44
2023-11-30T15:22:45.318Z,95978.84
2023-11-30T15:25:19.876Z,95977.06
2023-11-30T15:27:50.252Z,95990.31
2023-11-30T15:30:19.747Z,95996.78
2023-11-30T15:32:48.465Z,96006.47
2023-11-30T15:35:17.240Z,95997.78
2023-11-30T15:37:50.596Z,95981.22
2023-11-30T15:40:22.193Z,95989.22
2023-11-30T15:42:52.619Z,96003.16
2023-11-30T15:45:23.125Z,95998.75
2023-11-30T15:47:51.965Z,95998.75
2023-11-30T15:50:20.767Z,96004.94
2023-11-30T15:52:49.252Z,96009.38
2023-11-30T15:55:30.072Z,95999.06
2023-11-30T15:57:58.568Z,96001.69
2023-11-30T16:00:27.240Z,96011.31
2023-11-30T16:02:55.792Z,96000.69
2023-11-30T16:05:24.189Z,95990.22
2023-11-30T16:07:52.562Z,95971.84
2023-11-30T16:10:22.390Z,95974.63
2023-11-30T16:12:50.808Z,95978.38
2023-11-30T16:15:19.781Z,95985.56
2023-11-30T16:17:52.165Z,95998.81
2023-11-30T16:20:20.917Z,95995.34
2023-11-30T16:22:49.560Z,95985.84
2023-11-30T16:25:18.172Z,95972.88
2023-11-30T16:27:48.018Z,95989.59
2023-11-30T16:30:16.536Z,95999.09
2023-11-30T16:32:45.688Z,95994.84
2023-11-30T16:35:14.101Z,95985.16
2023-11-30T16:37:42.594Z,96000.88
2023-11-30T16:40:12.703Z,95988.63
2023-11-30T16:42:41.261Z,95982.38
2023-11-30T16:45:12.248Z,95990.41
2023-11-30T16:47:42.609Z,96015.66
2023-11-30T16:50:15.576Z,96015.66
2023-11-30T16:52:45.816Z,96011.22
2023-11-30T16:55:14.391Z,96013.84
2023-11-30T16:57:43.177Z,96008.44
2023-11-30T17:00:15.538Z,96019.78
2023-11-30T17:02:44.079Z,96020.59
2023-11-30T17:05:13.461Z,96025.84
2023-11-30T17:07:44.155Z,96021.56
2023-11-30T17:10:12.524Z,96029.28
2023-11-30T17:12:41.050Z,96029.28
2023-11-30T17:15:10.459Z,96024.03
2023-11-30T17:17:40.426Z,96005.69
2023-11-30T17:20:10.012Z,96001.28
2023-11-30T17:22:38.481Z,96016.84
2023-11-30T17:25:08.148Z,96021.25
2023-11-30T17:27:36.976Z,96033.56
2023-11-30T17:30:06.538Z,96026.66
2023-11-30T17:32:35.252Z,96033.72
2023-11-30T17:35:05.863Z,96022.53
2023-11-30T17:37:34.390Z,96013.97
2023-11-30T17:40:02.892Z,96024.31
2023-11-30T17:42:31.315Z,96026.13
2023-11-30T17:44:59.703Z,96014.97
2023-11-30T17:47:28.137Z,96009.72
2023-11-30T17:49:56.564Z,96004.63
2023-11-30T17:52:26.367Z,96004.63
2023-11-30T17:54:54.900Z,96008.88
2023-11-30T17:57:23.466Z,96014.13
2023-11-30T17:59:51.885Z,96009.72
2023-11-30T18:02:20.449Z,96013.19
2023-11-30T18:04:48.966Z,96027.09
2023-11-30T18:07:17.470Z,96027.09
2023-11-30T18:09:47.478Z,96027.94
2023-11-30T18:12:16.243Z,96042.16
2023-11-30T18:14:44.765Z,96029.84
2023-11-30T18:17:13.228Z,96028.06
2023-11-30T18:19:44.728Z,96029.06
2023-11-30T18:22:13.192Z,96027.09
2023-11-30T18:24:41.931Z,96027.94
2023-11-30T18:27:11.661Z,96027.94
2023-11-30T18:29:40.102Z,96000.06
2023-11-30T18:32:13.213Z,95997.31
2023-11-30T18:34:41.794Z,95997.44
2023-11-30T18:37:10.730Z,96009.56
2023-11-30T18:39:39.239Z,96013.03
2023-11-30T18:42:07.828Z,96000.59
2023-11-30T18:44:37.633Z,95991.38
2023-11-30T18:47:06.465Z,95988.63
2023-11-30T18:49:35.092Z,96003.34
2023-11-30T18:52:03.518Z,95997.16
2023-11-30T18:54:31.990Z,95992.72
2023-11-30T18:57:00.371Z,95996.19
2023-11-30T18:59:29.059Z,96003.91
2023-11-30T19:01:59.645Z,96000.59
2023-11-30T19:04:28.381Z,95988.31
2023-11-30T19:06:57.233Z,95982.09
2023-11-30T19:09:26.001Z,96009.13
2023-11-30T19:11:54.496Z,96014.25
2023-11-30T19:14:22.939Z,96013.25
2023-11-30T19:16:51.293Z,96005.25
2023-11-30T19:19:21.547Z,95997.53
2023-11-30T19:21:49.933Z,96003.59
2023-11-30T19:24:20.848Z,96015.72
2023-11-30T19:26:59.999Z,96000.97
2023-11-30T19:29:28.461Z,95988.72
2023-11-30T19:31:56.909Z,95982.50
2023-11-30T19:34:26.695Z,95988.72
2023-11-30T19:36:55.140Z,95997.38
2023-11-30T19:39:23.614Z,95993.97
2023-11-30T19:41:52.134Z,95998.38
2023-11-30T19:44:20.784Z,95996.72
2023-11-30T19:46:49.562Z,95987.03
2023-11-30T19:49:18.236Z,95989.53
2023-11-30T19:51:48.576Z,95992.97
2023-11-30T19:54:17.777Z,95995.59
2023-11-30T19:56:52.321Z,95985.13
2023-11-30T19:59:21.685Z,95985.94
2023-11-30T20:01:50.630Z,95984.97
2023-11-30T20:04:19.255Z,95987.72
2023-11-30T20:06:49.540Z,96002.78
2023-11-30T20:09:18.070Z,96005.25
2023-11-30T20:11:46.553Z,95995.75
2023-11-30T20:14:15.011Z,95987.19
2023-11-30T20:16:43.674Z,96003.75
2023-11-30T20:19:12.464Z,96005.53
2023-11-30T20:21:40.935Z,96010.78
2023-11-30T20:24:11.018Z,96029.28
2023-11-30T20:26:43.021Z,96010.13
2023-11-30T20:29:12.544Z,96012.75
2023-11-30T20:31:44.304Z,96012.75
2023-11-30T20:34:12.836Z,96009.28
2023-11-30T20:36:44.905Z,96007.78
2023-11-30T20:39:14.842Z,96000.06
2023-11-30T20:41:44.143Z,96005.31
2023-11-30T20:44:12.703Z,96007.94
2023-11-30T20:46:41.266Z,96001.16
2023-11-30T20:49:09.840Z,96003.78
2023-11-30T20:51:38.473Z,96005.75
2023-11-30T20:54:10.038Z,96006.03
2023-11-30T20:56:41.149Z,96009.75
2023-11-30T20:59:09.648Z,96013.22
2023-11-30T21:01:38.188Z,96008.13
2023-11-30T21:04:07.119Z,96015.00
2023-11-30T21:06:37.933Z,96007.00
2023-11-30T21:09:06.635Z,95997.50
2023-11-30T21:11:35.467Z,95999.28
2023-11-30T21:14:05.219Z,96011.44
2023-11-30T21:16:33.576Z,96005.34
2023-11-30T21:19:01.995Z,96012.22
2023-11-30T21:21:31.163Z,96017.31
2023-11-30T21:24:00.052Z,96012.94
2023-11-30T21:26:28.667Z,96007.69
2023-11-30T21:28:57.047Z,96002.44
2023-11-30T21:31:26.914Z,96011.13
2023-11-30T21:33:55.369Z,96019.66
2023-11-30T21:36:23.962Z,96017.88
2023-11-30T21:38:52.345Z,96013.31
2023-11-30T21:41:21.457Z,96014.97
2023-11-30T21:43:49.919Z,96010.41
2023-11-30T21:46:18.729Z,96009.44
2023-11-30T21:48:48.715Z,96018.13
2023-11-30T21:51:17.590Z,96012.88
2023-11-30T21:53:45.947Z,96004.03
2023-11-30T21:56:14.272Z,96006.53
2023-11-30T21:58:43.124Z,96009.97
2023-11-30T22:01:12.067Z,96004.59
2023-11-30T22:03:40.674Z,96015.88
2023-11-30T22:06:12.101Z,96007.22
2023-11-30T22:08:40.585Z,95993.97
2023-11-30T22:11:09.430Z,95991.47
2023-11-30T22:13:37.740Z,95994.09
2023-11-30T22:16:11.884Z,95991.47
2023-11-30T22:18:42.842Z,95998.38
2023-11-30T22:21:12.627Z,95999.19
2023-11-30T22:23:40.912Z,96007.88
2023-11-30T22:26:10.416Z,96019.03
2023-11-30T22:28:38.838Z,96013.09
2023-11-30T22:31:08.023Z,96018.22
2023-11-30T22:33:38.645Z,96019.03
2023-11-30T22:36:08.593Z,96004.44
2023-11-30T22:38:43.894Z,95996.72
2023-11-30T22:41:14.994Z,96000.28
2023-11-30T22:43:43.403Z,96009.00
2023-11-30T22:46:18.485Z,96010.13
2023-11-30T22:48:49.525Z,96025.00
2023-11-30T22:51:20.257Z,96012.88
2023-11-30T22:53:50.066Z,96007.66
2023-11-30T22:56:19.485Z,96003.91
2023-11-30T22:58:48.679Z,96001.13
2023-11-30T23:01:21.494Z,95997.69
2023-11-30T23:03:54.127Z,95996.72
2023-11-30T23:06:22.714Z,95988.03
2023-11-30T23:08:52.475Z,95989.53
2023-11-30T23:11:20.827Z,95996.44
2023-11-30T23:13:49.216Z,95988.41
2023-11-30T23:16:17.662Z,96002.19
2023-11-30T23:18:45.996Z,95996.13
2023-11-30T23:21:14.374Z,95998.63
2023-11-30T23:23:42.743Z,96006.34
2023-11-30T23:26:12.443Z,95999.41
2023-11-30T23:28:41.092Z,96000.25
2023-11-30T23:31:09.555Z,96008.94
2023-11-30T23:33:38.011Z,96005.50
2023-11-30T23:36:07.690Z,96001.88
2023-11-30T23:38:36.088Z,95995.00
2023-11-30T23:41:04.707Z,96000.09
2023-11-30T23:43:34.389Z,96005.34
2023-11-30T23:46:06.047Z,96016.81
2023-11-30T23:48:34.425Z,96009.75
2023-11-30T23:51:02.768Z,96004.50
2023-11-30T23:53:31.123Z,96008.13
2023-11-30T23:55:59.434Z,96014.06
2023-11-30T23:58:30.703Z,96008.81
